createdAt,value
2023-04-15T08:01:11.112Z,607.00
2023-04-15T08:02:11.152Z,607.00
2023-04-15T08:03:11.293Z,606.00
2023-04-15T08:04:11.117Z,605.00
2023-04-15T08:05:11.119Z,606.00
2023-04-15T08:06:11.070Z,609.00
2023-04-15T08:07:11.060Z,609.00
2023-04-15T08:08:11.006Z,605.00
2023-04-15T08:09:11.023Z,604.00
2023-04-15T08:10:11.019Z,605.00
2023-04-15T08:11:11.039Z,605.00
2023-04-15T08:12:11.021Z,602.00
2023-04-15T08:13:10.984Z,602.00
2023-04-15T08:14:10.978Z,602.00
2023-04-15T08:15:10.972Z,603.00
2023-04-15T08:16:11.022Z,603.00
2023-04-15T08:17:10.997Z,603.00
2023-04-15T08:18:10.945Z,602.00
2023-04-15T08:19:10.937Z,600.00
2023-04-15T08:20:10.969Z,601.00
2023-04-15T08:21:10.948Z,601.00
2023-04-15T08:22:17.846Z,603.00
2023-04-15T08:23:11.936Z,606.00
2023-04-15T08:24:10.912Z,604.00
2023-04-15T08:25:10.945Z,601.00
2023-04-15T08:26:10.897Z,598.00
2023-04-15T08:27:10.889Z,594.00
2023-04-15T08:28:10.860Z,593.00
2023-04-15T08:29:10.894Z,594.00
2023-04-15T08:30:10.865Z,595.00
2023-04-15T08:31:10.914Z,595.00
2023-04-15T08:32:10.850Z,594.00
2023-04-15T08:33:10.848Z,596.00
2023-04-15T08:34:10.893Z,595.00
2023-04-15T08:35:10.952Z,595.00
2023-04-15T08:36:10.971Z,595.00
2023-04-15T08:37:12.573Z,595.00
2023-04-15T08:38:11.119Z,596.00
2023-04-15T08:39:11.166Z,595.00
2023-04-15T08:40:11.246Z,598.00
2023-04-15T08:41:11.358Z,596.00
2023-04-15T08:42:11.382Z,597.00
2023-04-15T08:43:11.423Z,598.00
2023-04-15T08:44:11.500Z,599.00
2023-04-15T08:45:11.535Z,599.00
2023-04-15T08:46:11.618Z,603.00
2023-04-15T08:47:11.650Z,603.00
2023-04-15T08:48:11.724Z,603.00
2023-04-15T08:49:11.777Z,605.00
2023-04-15T08:50:11.859Z,609.00
2023-04-15T08:51:11.880Z,612.00
2023-04-15T08:52:11.954Z,612.00
2023-04-15T08:53:11.994Z,610.00
2023-04-15T08:54:12.033Z,611.00
2023-04-15T08:55:12.088Z,607.00
2023-04-15T08:56:12.103Z,603.00
2023-04-15T08:57:12.166Z,602.00
2023-04-15T08:58:12.262Z,598.00
2023-04-15T08:59:12.289Z,599.00
2023-04-15T09:00:12.368Z,598.00
2023-04-15T09:01:12.463Z,599.00
2023-04-15T09:02:12.441Z,598.00
2023-04-15T09:03:12.521Z,600.00
2023-04-15T09:04:12.661Z,601.00
2023-04-15T09:05:12.588Z,600.00
2023-04-15T09:06:12.609Z,600.00
2023-04-15T09:07:12.679Z,601.00
2023-04-15T09:08:12.784Z,600.00
2023-04-15T09:09:12.781Z,598.00
2023-04-15T09:10:12.843Z,597.00
2023-04-15T09:11:12.916Z,600.00
2023-04-15T09:12:12.922Z,597.00
2023-04-15T09:13:12.973Z,596.00
2023-04-15T09:14:13.026Z,600.00
2023-04-15T09:15:13.108Z,597.00
2023-04-15T09:16:13.084Z,596.00
2023-04-15T09:17:13.152Z,593.00
2023-04-15T09:18:13.193Z,594.00
2023-04-15T09:19:13.258Z,595.00
2023-04-15T09:20:13.278Z,590.00
2023-04-15T09:21:13.352Z,566.00
2023-04-15T09:22:13.329Z,530.00
2023-04-15T09:23:13.327Z,528.00
2023-04-15T09:24:13.420Z,527.00
2023-04-15T09:25:13.427Z,528.00
2023-04-15T09:26:13.427Z,530.00
2023-04-15T09:27:13.456Z,536.00
2023-04-15T09:28:13.483Z,545.00
2023-04-15T09:29:13.479Z,549.00
2023-04-15T09:30:13.468Z,554.00
2023-04-15T09:31:13.513Z,559.00
2023-04-15T09:32:13.465Z,560.00
2023-04-15T09:33:13.429Z,560.00
2023-04-15T09:34:13.472Z,563.00
2023-04-15T09:35:13.506Z,562.00
2023-04-15T09:36:13.542Z,564.00
2023-04-15T09:37:28.651Z,569.00
2023-04-15T09:38:14.612Z,573.00
2023-04-15T09:39:13.632Z,578.00
2023-04-15T09:40:13.596Z,577.00
2023-04-15T09:41:13.521Z,584.00
2023-04-15T09:42:13.544Z,585.00
2023-04-15T09:43:13.541Z,583.00
2023-04-15T09:44:13.536Z,586.00
2023-04-15T09:45:13.605Z,589.00
2023-04-15T09:46:13.671Z,590.00
2023-04-15T09:47:13.664Z,590.00
2023-04-15T09:48:13.750Z,589.00
2023-04-15T09:49:13.820Z,588.00
2023-04-15T09:50:13.893Z,590.00
2023-04-15T09:51:13.906Z,589.00
2023-04-15T09:52:13.980Z,591.00
2023-04-15T09:53:14.000Z,593.00
2023-04-15T09:54:14.070Z,594.00
2023-04-15T09:55:14.138Z,592.00
2023-04-15T09:56:14.239Z,590.00
2023-04-15T09:57:14.231Z,587.00
2023-04-15T09:58:14.272Z,583.00
2023-04-15T09:59:14.364Z,582.00
2023-04-15T10:00:14.385Z,579.00
2023-04-15T10:01:14.524Z,581.00
2023-04-15T10:02:14.677Z,582.00
2023-04-15T10:03:14.648Z,582.00
2023-04-15T10:04:14.730Z,581.00
2023-04-15T10:05:14.677Z,580.00
2023-04-15T10:06:14.722Z,581.00
2023-04-15T10:07:14.795Z,582.00
2023-04-15T10:08:14.842Z,582.00
2023-04-15T10:09:14.877Z,582.00
2023-04-15T10:10:14.925Z,582.00
2023-04-15T10:11:14.973Z,584.00
2023-04-15T10:12:15.009Z,584.00
2023-04-15T10:13:15.052Z,586.00
2023-04-15T10:14:15.110Z,585.00
2023-04-15T10:15:15.137Z,585.00
2023-04-15T10:16:15.289Z,587.00
2023-04-15T10:17:15.243Z,586.00
2023-04-15T10:18:15.307Z,587.00
2023-04-15T10:19:15.334Z,588.00
2023-04-15T10:20:15.452Z,590.00
2023-04-15T10:21:16.129Z,588.00
2023-04-15T10:22:15.463Z,587.00
2023-04-15T10:23:15.504Z,589.00
2023-04-15T10:24:15.569Z,589.00
2023-04-15T10:25:15.585Z,591.00
2023-04-15T10:26:15.612Z,590.00
2023-04-15T10:27:15.654Z,591.00
2023-04-15T10:28:15.733Z,592.00
2023-04-15T10:29:15.727Z,592.00
2023-04-15T10:30:15.777Z,589.00
2023-04-15T10:31:15.867Z,588.00
2023-04-15T10:32:15.857Z,586.00
2023-04-15T10:33:15.908Z,590.00
2023-04-15T10:34:15.922Z,587.00
2023-04-15T10:35:15.957Z,586.00
2023-04-15T10:36:16.043Z,585.00
2023-04-15T10:37:16.050Z,589.00
2023-04-15T10:38:16.124Z,590.00
2023-04-15T10:39:16.105Z,591.00
2023-04-15T10:40:16.176Z,589.00
2023-04-15T10:41:17.839Z,590.00
2023-04-15T10:42:16.224Z,589.00
2023-04-15T10:43:16.168Z,585.00
2023-04-15T10:44:16.187Z,590.00
2023-04-15T10:45:16.182Z,589.00
2023-04-15T10:46:16.200Z,584.00
2023-04-15T10:47:16.205Z,584.00
2023-04-15T10:48:16.162Z,582.00
2023-04-15T10:49:16.171Z,581.00
2023-04-15T10:50:16.141Z,581.00
2023-04-15T10:51:16.143Z,585.00
2023-04-15T10:52:16.127Z,588.00
2023-04-15T10:53:16.158Z,589.00
2023-04-15T10:54:16.139Z,588.00
2023-04-15T10:55:16.177Z,589.00
2023-04-15T10:56:16.101Z,591.00
2023-04-15T10:57:16.097Z,596.00
2023-04-15T10:58:16.105Z,594.00
2023-04-15T10:59:16.096Z,589.00
2023-04-15T11:00:16.079Z,587.00
2023-04-15T11:01:16.106Z,583.00
2023-04-15T11:02:16.185Z,584.00
2023-04-15T11:03:16.244Z,585.00
2023-04-15T11:04:16.154Z,584.00
2023-04-15T11:05:16.079Z,583.00
2023-04-15T11:06:16.025Z,585.00
2023-04-15T11:07:16.028Z,586.00
2023-04-15T11:08:16.010Z,584.00
2023-04-15T11:09:16.013Z,584.00
2023-04-15T11:10:16.003Z,586.00
2023-04-15T11:11:16.007Z,583.00
2023-04-15T11:12:16.031Z,584.00
2023-04-15T11:13:16.002Z,583.00
2023-04-15T11:14:15.985Z,586.00
2023-04-15T11:15:15.963Z,584.00
2023-04-15T11:16:15.986Z,581.00
2023-04-15T11:17:15.994Z,581.00
2023-04-15T11:18:15.945Z,580.00
2023-04-15T11:19:15.966Z,579.00
2023-04-15T11:20:16.007Z,580.00
2023-04-15T11:21:15.929Z,578.00
2023-04-15T11:22:15.914Z,578.00
2023-04-15T11:23:16.094Z,576.00
2023-04-15T11:24:15.907Z,575.00
2023-04-15T11:25:15.953Z,576.00
2023-04-15T11:26:15.923Z,575.00
2023-04-15T11:27:15.888Z,577.00
2023-04-15T11:28:15.865Z,578.00
2023-04-15T11:29:15.908Z,578.00
2023-04-15T11:30:15.854Z,581.00
2023-04-15T11:31:15.947Z,583.00
2023-04-15T11:32:15.930Z,583.00
2023-04-15T11:33:15.890Z,584.00
2023-04-15T11:34:15.834Z,582.00
2023-04-15T11:35:15.843Z,583.00
2023-04-15T11:36:15.851Z,583.00
2023-04-15T11:37:15.854Z,580.00
2023-04-15T11:38:15.810Z,578.00
2023-04-15T11:39:15.838Z,577.00
2023-04-15T11:40:15.848Z,575.00
2023-04-15T11:41:15.859Z,576.00
2023-04-15T11:42:15.887Z,575.00
2023-04-15T11:43:15.943Z,575.00
2023-04-15T11:44:15.935Z,576.00
2023-04-15T11:45:15.952Z,578.00
2023-04-15T11:46:16.062Z,577.00
2023-04-15T11:47:16.033Z,577.00
2023-04-15T11:48:15.990Z,579.00
2023-04-15T11:49:16.071Z,581.00
2023-04-15T11:50:16.049Z,580.00
2023-04-15T11:51:16.127Z,579.00
2023-04-15T11:52:16.126Z,576.00
2023-04-15T11:53:16.088Z,576.00
2023-04-15T11:54:16.148Z,576.00
2023-04-15T11:55:16.196Z,576.00
2023-04-15T11:56:16.195Z,578.00
2023-04-15T11:57:16.205Z,579.00
2023-04-15T11:58:16.581Z,580.00
2023-04-15T11:59:16.272Z,581.00
2023-04-15T12:00:16.279Z,582.00
2023-04-15T12:01:16.314Z,581.00
2023-04-15T12:02:16.438Z,584.00
2023-04-15T12:03:16.503Z,583.00
2023-04-15T12:04:16.495Z,580.00
2023-04-15T12:05:16.455Z,580.00
2023-04-15T12:06:16.501Z,581.00
2023-04-15T12:07:16.417Z,581.00
2023-04-15T12:08:16.442Z,581.00
2023-04-15T12:09:16.453Z,585.00
2023-04-15T12:10:16.508Z,585.00
2023-04-15T12:11:16.520Z,584.00
2023-04-15T12:12:16.522Z,585.00
2023-04-15T12:13:16.551Z,584.00
2023-04-15T12:14:16.607Z,583.00
2023-04-15T12:15:16.584Z,581.00
2023-04-15T12:16:16.684Z,581.00
2023-04-15T12:17:16.642Z,579.00
2023-04-15T12:18:16.747Z,580.00
2023-04-15T12:19:16.672Z,579.00
2023-04-15T12:20:16.692Z,578.00
2023-04-15T12:21:16.687Z,578.00
2023-04-15T12:22:16.695Z,578.00
2023-04-15T12:23:16.755Z,576.00
2023-04-15T12:24:16.790Z,575.00
2023-04-15T12:25:16.779Z,577.00
2023-04-15T12:26:16.804Z,577.00
2023-04-15T12:27:16.852Z,574.00
2023-04-15T12:28:16.827Z,576.00
2023-04-15T12:29:16.805Z,578.00
2023-04-15T12:30:16.813Z,579.00
2023-04-15T12:31:16.859Z,581.00
2023-04-15T12:32:16.882Z,582.00
2023-04-15T12:33:16.833Z,583.00
2023-04-15T12:34:16.897Z,586.00
2023-04-15T12:35:16.905Z,583.00
2023-04-15T12:36:16.901Z,584.00
2023-04-15T12:37:16.897Z,583.00
2023-04-15T12:38:16.936Z,585.00
2023-04-15T12:39:16.956Z,585.00
2023-04-15T12:40:16.946Z,585.00
2023-04-15T12:41:16.974Z,584.00
2023-04-15T12:42:17.011Z,581.00
2023-04-15T12:43:17.099Z,582.00
2023-04-15T12:44:17.033Z,583.00
2023-04-15T12:45:17.024Z,582.00
2023-04-15T12:46:17.103Z,581.00
2023-04-15T12:47:17.099Z,579.00
2023-04-15T12:48:17.117Z,578.00
2023-04-15T12:49:17.101Z,580.00
2023-04-15T12:50:17.077Z,581.00
2023-04-15T12:51:17.086Z,584.00
2023-04-15T12:52:17.085Z,583.00
2023-04-15T12:53:17.143Z,585.00
2023-04-15T12:54:17.166Z,584.00
2023-04-15T12:55:17.138Z,582.00
2023-04-15T12:56:17.175Z,581.00
2023-04-15T12:57:17.191Z,580.00
2023-04-15T12:58:17.225Z,580.00
2023-04-15T12:59:17.211Z,576.00
2023-04-15T13:00:24.718Z,576.00
